Time;durP1;ratioP1;P1;durP2;ratioP2;P2;SDS_P1;SDS_P2;PMS_P1;PMS_P2;Temp;Humidity;BMP_temperature;BMP_pressure;BME280_temperature;BME280_humidity;BME280_pressure;Samples;Min_cycle;Max_cycle;Signal;HPM_P1;HPM_P2
2021/07/16 00:02:19;;;;;;;8.73;3.47;;;15.60;99.90;;;;;;4977717;28;20023;-89
2021/07/16 00:04:44;;;;;;;7.82;3.85;;;15.60;99.90;;;;;;4977368;28;20128;-90
2021/07/16 00:07:10;;;;;;;8.82;3.78;;;15.60;99.90;;;;;;4977563;28;20027;-89
2021/07/16 00:09:35;;;;;;;9.15;3.83;;;15.50;99.90;;;;;;4977002;28;20041;-89
2021/07/16 00:12:01;;;;;;;6.45;3.80;;;15.40;99.90;;;;;;4977268;28;20046;-91
2021/07/16 00:14:27;;;;;;;9.18;4.35;;;15.40;99.90;;;;;;4977263;28;20022;-89
2021/07/16 00:16:54;;;;;;;7.93;3.78;;;15.30;99.90;;;;;;4977238;28;20038;-89
2021/07/16 00:19:20;;;;;;;8.15;3.88;;;15.30;99.90;;;;;;4977207;28;20029;-89
2021/07/16 00:21:45;;;;;;;13.02;4.10;;;15.30;99.90;;;;;;4977064;28;20149;-89
2021/07/16 00:24:11;;;;;;;9.02;3.78;;;15.30;99.90;;;;;;4977032;28;20089;-88
2021/07/16 00:26:37;;;;;;;7.07;3.53;;;15.20;99.90;;;;;;4977087;28;20054;-88
2021/07/16 00:29:03;;;;;;;6.88;3.67;;;15.20;99.90;;;;;;4977250;28;20476;-89
2021/07/16 00:31:30;;;;;;;7.90;3.58;;;15.10;99.90;;;;;;4976968;28;20037;-90
2021/07/16 00:33:56;;;;;;;6.72;3.65;;;15.10;99.90;;;;;;4977302;28;20050;-89
2021/07/16 00:36:22;;;;;;;5.72;3.70;;;15.00;99.90;;;;;;4976956;28;20053;-91
2021/07/16 00:38:48;;;;;;;10.23;4.00;;;15.00;99.90;;;;;;4976246;28;20049;-91
2021/07/16 00:41:14;;;;;;;9.30;4.18;;;14.90;99.90;;;;;;4976708;28;20555;-88
2021/07/16 00:43:40;;;;;;;7.85;3.88;;;14.90;99.90;;;;;;4976472;28;20130;-92
2021/07/16 00:46:06;;;;;;;6.75;3.63;;;14.80;99.90;;;;;;4975984;28;20038;-89
2021/07/16 00:48:31;;;;;;;7.63;4.15;;;14.80;99.90;;;;;;4976390;28;20026;-89
2021/07/16 00:50:57;;;;;;;9.80;4.13;;;14.70;99.90;;;;;;4976375;28;20022;-89
2021/07/16 00:53:23;;;;;;;5.68;3.72;;;14.60;99.90;;;;;;4976739;28;20029;-90
2021/07/16 00:55:49;;;;;;;8.57;3.70;;;14.60;99.90;;;;;;4976356;28;20043;-91
2021/07/16 00:58:16;;;;;;;7.88;3.70;;;14.60;99.90;;;;;;4976314;28;20033;-91
2021/07/16 01:00:43;;;;;;;7.20;3.50;;;14.50;99.90;;;;;;4976198;28;20027;-91
2021/07/16 01:03:09;;;;;;;6.97;3.53;;;14.50;99.90;;;;;;4976859;28;20031;-90
2021/07/16 01:05:35;;;;;;;10.27;3.65;;;14.50;99.90;;;;;;4976962;28;20046;-90
2021/07/16 01:08:03;;;;;;;8.73;3.90;;;14.40;99.90;;;;;;4976700;28;20054;-88
2021/07/16 01:10:30;;;;;;;8.00;4.10;;;14.40;99.90;;;;;;4978432;28;20496;-89
2021/07/16 01:12:56;;;;;;;7.60;3.65;;;14.40;99.90;;;;;;4976979;28;20027;-89
2021/07/16 01:15:24;;;;;;;8.30;3.72;;;14.40;99.90;;;;;;4976375;28;20034;-88
2021/07/16 01:17:52;;;;;;;10.02;3.80;;;14.40;99.90;;;;;;4976608;28;20034;-88
2021/07/16 01:20:30;;;;;;;7.38;3.83;;;14.40;99.90;;;;;;4976820;28;20050;-90
2021/07/16 01:22:57;;;;;;;7.70;3.58;;;14.40;99.90;;;;;;4976646;28;20026;-91
2021/07/16 01:25:26;;;;;;;7.35;3.85;;;14.40;99.90;;;;;;4976409;28;20068;-89
2021/07/16 01:27:55;;;;;;;7.60;3.80;;;14.40;99.90;;;;;;4976431;28;20026;-87
2021/07/16 01:30:23;;;;;;;5.55;3.60;;;14.40;99.90;;;;;;4976613;28;20034;-89
2021/07/16 01:32:49;;;;;;;8.32;3.65;;;14.40;99.90;;;;;;4976403;28;20440;-90
2021/07/16 01:35:16;;;;;;;5.45;4.00;;;14.40;99.90;;;;;;4993604;28;20106;-89
2021/07/16 01:37:42;;;;;;;8.07;4.07;;;14.40;99.90;;;;;;4976069;28;20121;-90
2021/07/16 01:40:11;;;;;;;6.18;4.45;;;14.40;99.90;;;;;;4976015;28;20034;-89
2021/07/16 01:42:43;;;;;;;6.95;4.00;;;14.30;99.90;;;;;;4976256;28;20033;-89
2021/07/16 01:45:23;;;;;;;8.48;4.18;;;14.30;99.90;;;;;;4976428;28;20038;-90
2021/07/16 01:47:54;;;;;;;7.93;4.15;;;14.30;99.90;;;;;;4976403;28;20053;-89
2021/07/16 01:50:21;;;;;;;6.80;4.10;;;14.20;99.90;;;;;;4977562;28;20026;-90
2021/07/16 01:52:48;;;;;;;9.43;4.22;;;14.20;99.90;;;;;;4980030;28;20033;-90
2021/07/16 01:55:18;;;;;;;6.25;3.65;;;14.20;99.90;;;;;;4979670;28;20022;-90
2021/07/16 01:57:50;;;;;;;7.28;4.03;;;14.10;99.90;;;;;;4979838;28;20022;-89
2021/07/16 02:00:32;;;;;;;8.93;3.85;;;14.10;99.90;;;;;;4980030;28;20121;-91
2021/07/16 02:03:00;;;;;;;11.90;4.00;;;14.00;99.90;;;;;;4980281;28;20030;-90
2021/07/16 02:05:27;;;;;;;9.20;4.47;;;14.00;99.90;;;;;;4979959;28;20504;-90
2021/07/16 02:07:58;;;;;;;7.10;3.88;;;14.00;99.90;;;;;;4980395;28;20033;-88
2021/07/16 02:10:25;;;;;;;10.05;4.45;;;14.00;99.90;;;;;;4992080;28;20037;-90
2021/07/16 02:12:52;;;;;;;8.43;3.95;;;14.00;99.90;;;;;;5003906;28;20065;-88
2021/07/16 02:15:20;;;;;;;9.98;3.90;;;14.00;99.90;;;;;;5002990;28;20018;-89
2021/07/16 02:17:47;;;;;;;6.30;4.07;;;14.00;99.90;;;;;;4990388;28;20022;-88
2021/07/16 02:20:23;;;;;;;7.13;3.40;;;13.90;99.90;;;;;;4990324;28;20038;-88
2021/07/16 02:22:50;;;;;;;8.13;3.90;;;13.90;99.90;;;;;;4987853;28;20022;-88
2021/07/16 02:25:17;;;;;;;7.95;4.00;;;13.80;99.90;;;;;;4986334;28;20041;-88
2021/07/16 02:27:45;;;;;;;11.48;4.03;;;13.70;99.90;;;;;;4984496;28;20014;-89
2021/07/16 02:30:11;;;;;;;6.05;3.92;;;13.60;99.90;;;;;;4979850;28;20030;-90
2021/07/16 02:32:37;;;;;;;8.13;4.90;;;13.60;99.90;;;;;;5003974;28;20081;-89
2021/07/16 02:35:04;;;;;;;7.75;4.22;;;13.50;99.90;;;;;;4979565;28;20023;-88
2021/07/16 02:37:30;;;;;;;4.88;3.90;;;13.50;99.90;;;;;;4979782;28;20023;-88
2021/07/16 02:39:56;;;;;;;7.47;4.35;;;13.50;99.90;;;;;;4979915;28;20030;-89
2021/07/16 02:42:23;;;;;;;6.30;4.10;;;13.40;99.90;;;;;;4996816;28;20031;-88
2021/07/16 02:44:49;;;;;;;11.73;4.60;;;13.40;99.90;;;;;;4979207;28;20492;-88
2021/07/16 02:47:14;;;;;;;9.50;4.70;;;13.40;99.90;;;;;;4979368;28;20089;-90
2021/07/16 02:49:40;;;;;;;9.65;4.35;;;13.40;99.90;;;;;;4978909;28;20022;-90
2021/07/16 02:52:06;;;;;;;8.57;4.63;;;13.40;99.90;;;;;;4979026;28;20034;-88
2021/07/16 02:54:31;;;;;;;8.75;4.35;;;13.40;99.90;;;;;;4978787;28;20041;-91
2021/07/16 02:56:57;;;;;;;11.88;5.40;;;13.40;99.90;;;;;;4979014;28;20035;-91
2021/07/16 02:59:22;;;;;;;8.20;4.20;;;13.40;99.90;;;;;;4978671;28;20533;-90
2021/07/16 03:01:55;;;;;;;10.07;5.00;;;13.40;99.90;;;;;;4978538;28;20053;-90
2021/07/16 03:04:21;;;;;;;8.98;5.07;;;13.40;99.90;;;;;;4978627;28;20056;-90
2021/07/16 03:06:48;;;;;;;7.72;4.88;;;13.40;99.90;;;;;;4978898;28;20026;-90
2021/07/16 03:09:13;;;;;;;8.63;4.65;;;13.30;99.90;;;;;;4996022;28;20480;-90
2021/07/16 03:11:39;;;;;;;7.57;4.80;;;13.30;99.90;;;;;;4978584;28;20046;-91
2021/07/16 03:14:05;;;;;;;9.90;4.65;;;13.30;99.90;;;;;;4979158;28;20026;-90
2021/07/16 03:16:31;;;;;;;7.35;4.40;;;13.20;99.90;;;;;;4978767;28;20037;-90
2021/07/16 03:18:58;;;;;;;9.18;4.80;;;13.20;99.90;;;;;;4978380;28;20022;-90
2021/07/16 03:21:24;;;;;;;6.70;4.57;;;13.10;99.90;;;;;;4978642;28;20030;-90
2021/07/16 03:23:49;;;;;;;9.95;4.68;;;13.10;99.90;;;;;;4978387;28;20026;-91
2021/07/16 03:26:15;;;;;;;6.07;4.15;;;13.10;99.90;;;;;;4978077;28;20066;-91
2021/07/16 03:28:41;;;;;;;5.97;4.10;;;13.00;99.90;;;;;;4978300;28;20173;-91
2021/07/16 03:31:07;;;;;;;6.97;4.60;;;13.00;99.90;;;;;;4978103;28;20076;-91
2021/07/16 03:33:33;;;;;;;10.55;4.90;;;13.00;99.90;;;;;;4995404;28;20211;-91
2021/07/16 03:35:59;;;;;;;5.30;4.22;;;13.00;99.90;;;;;;4978053;28;20030;-91
2021/07/16 03:38:24;;;;;;;11.32;4.97;;;12.90;99.90;;;;;;4978025;28;20125;-91
2021/07/16 03:40:54;;;;;;;6.18;4.68;;;12.80;99.90;;;;;;4978341;28;20026;-91
2021/07/16 03:43:20;;;;;;;8.75;4.70;;;12.70;99.90;;;;;;4978076;28;20030;-90
2021/07/16 03:45:46;;;;;;;8.88;4.65;;;12.70;99.90;;;;;;4977991;28;20042;-91
2021/07/16 03:48:11;;;;;;;8.70;4.97;;;12.70;99.90;;;;;;4995223;28;20472;-90
2021/07/16 03:50:37;;;;;;;9.35;5.13;;;12.60;99.90;;;;;;4977993;28;20065;-90
2021/07/16 03:53:04;;;;;;;7.40;4.95;;;12.60;99.90;;;;;;4978098;28;20026;-91
2021/07/16 03:55:30;;;;;;;8.80;5.45;;;12.60;99.90;;;;;;4979597;28;20508;-90
2021/07/16 03:57:55;;;;;;;7.93;5.18;;;12.60;99.90;;;;;;4978666;28;20038;-90
2021/07/16 04:00:28;;;;;;;7.88;4.72;;;12.60;99.90;;;;;;4978099;28;20388;-90
2021/07/16 04:02:55;;;;;;;9.20;4.93;;;12.60;99.90;;;;;;4977610;28;20026;-90
2021/07/16 04:05:21;;;;;;;11.57;4.68;;;12.70;99.90;;;;;;4977370;28;20041;-92
2021/07/16 04:07:48;;;;;;;10.27;5.55;;;12.70;99.90;;;;;;4977426;28;20404;-90
2021/07/16 04:10:16;;;;;;;8.15;4.90;;;12.70;99.90;;;;;;4977400;28;20041;-90
2021/07/16 04:12:43;;;;;;;11.50;5.53;;;12.70;99.90;;;;;;4976696;28;20038;-90
2021/07/16 04:15:09;;;;;;;10.20;5.18;;;12.70;99.90;;;;;;4977047;28;20026;-90
2021/07/16 04:17:35;;;;;;;11.15;5.57;;;12.70;99.90;;;;;;4977281;28;20033;-90
2021/07/16 04:20:00;;;;;;;7.45;4.70;;;12.60;99.90;;;;;;4977412;28;20030;-90
2021/07/16 04:22:26;;;;;;;9.73;5.20;;;12.60;99.90;;;;;;4977108;28;20026;-90
2021/07/16 04:24:52;;;;;;;8.73;4.82;;;12.60;99.90;;;;;;4977084;28;20476;-89
2021/07/16 04:27:18;;;;;;;8.48;5.20;;;12.60;99.90;;;;;;4977245;28;20030;-90
2021/07/16 04:29:44;;;;;;;8.38;4.68;;;12.60;99.90;;;;;;4977010;28;20029;-90
2021/07/16 04:32:12;;;;;;;7.25;4.88;;;12.50;99.90;;;;;;4977151;28;20026;-90
2021/07/16 04:34:39;;;;;;;7.20;4.90;;;12.50;99.90;;;;;;4979235;28;20037;-90
2021/07/16 04:37:07;;;;;;;7.28;4.15;;;12.50;99.90;;;;;;4979910;28;20360;-90
2021/07/16 04:39:33;;;;;;;10.45;4.50;;;12.50;99.90;;;;;;4980131;28;20117;-90
2021/07/16 04:41:59;;;;;;;6.53;3.80;;;12.50;99.90;;;;;;4978692;28;20053;-91
2021/07/16 04:44:26;;;;;;;5.10;3.83;;;12.50;99.90;;;;;;4978610;28;20053;-91
2021/07/16 04:46:52;;;;;;;4.55;3.40;;;12.50;99.90;;;;;;4979282;28;20034;-90
2021/07/16 04:49:18;;;;;;;5.82;4.00;;;12.60;99.90;;;;;;4979272;28;20030;-90
2021/07/16 04:51:44;;;;;;;8.73;4.50;;;12.60;99.90;;;;;;4981412;28;20026;-90
2021/07/16 04:54:14;;;;;;;12.77;4.55;;;12.50;99.90;;;;;;4978284;28;20026;-89
2021/07/16 04:56:40;;;;;;;6.80;3.97;;;12.50;99.90;;;;;;4978391;28;20030;-89
2021/07/16 04:59:06;;;;;;;10.27;4.78;;;12.50;99.90;;;;;;4978415;28;20026;-91
2021/07/16 05:01:32;;;;;;;7.60;4.50;;;12.50;99.90;;;;;;4978082;28;20380;-90
2021/07/16 05:03:58;;;;;;;6.68;3.83;;;12.50;99.90;;;;;;4978876;28;20027;-90
2021/07/16 05:06:24;;;;;;;6.38;4.15;;;12.40;99.90;;;;;;4961449;28;20052;-90
2021/07/16 05:08:50;;;;;;;5.60;4.00;;;12.40;99.90;;;;;;4977966;28;20022;-89
2021/07/16 05:11:17;;;;;;;6.35;4.50;;;12.40;99.90;;;;;;4977162;28;20057;-90
2021/07/16 05:13:43;;;;;;;6.93;4.28;;;12.40;99.90;;;;;;4977529;28;20026;-89
2021/07/16 05:16:11;;;;;;;6.45;3.80;;;12.40;99.90;;;;;;4977785;28;20483;-90
2021/07/16 05:18:37;;;;;;;6.07;4.10;;;12.50;99.90;;;;;;4977600;28;20126;-89
2021/07/16 05:21:04;;;;;;;8.43;4.35;;;12.50;99.90;;;;;;4978115;28;20082;-90
2021/07/16 05:23:30;;;;;;;9.80;5.05;;;12.50;99.90;;;;;;4978107;28;20480;-90
2021/07/16 05:25:56;;;;;;;7.30;4.30;;;12.50;99.90;;;;;;4981399;28;20045;-90
2021/07/16 05:28:22;;;;;;;7.25;4.40;;;12.50;99.90;;;;;;4981269;28;20072;-90
2021/07/16 05:30:48;;;;;;;12.80;4.88;;;12.40;99.90;;;;;;4981436;28;20031;-90
2021/07/16 05:33:14;;;;;;;5.55;4.55;;;12.50;99.90;;;;;;4981533;28;20072;-90
2021/07/16 05:35:41;;;;;;;8.35;5.30;;;12.50;99.90;;;;;;4981689;28;20044;-90
2021/07/16 05:38:08;;;;;;;8.73;4.28;;;12.50;99.90;;;;;;4981320;28;20547;-91
2021/07/16 05:40:34;;;;;;;8.63;4.70;;;12.60;99.90;;;;;;4981215;28;20034;-90
2021/07/16 05:43:10;;;;;;;8.20;4.55;;;12.60;99.90;;;;;;4980761;28;20027;-91
2021/07/16 05:45:37;;;;;;;7.47;4.22;;;12.60;99.90;;;;;;4981060;28;20030;-90
2021/07/16 05:48:04;;;;;;;8.23;4.57;;;12.70;99.90;;;;;;4981138;28;20026;-89
2021/07/16 05:50:31;;;;;;;6.63;4.65;;;12.70;99.90;;;;;;4979686;28;20448;-89
2021/07/16 05:52:57;;;;;;;7.38;4.65;;;12.70;99.90;;;;;;4979733;28;20026;-89
2021/07/16 05:55:23;;;;;;;7.20;4.55;;;12.80;99.90;;;;;;4979544;28;20034;-89
2021/07/16 05:57:48;;;;;;;10.50;5.00;;;12.90;99.90;;;;;;4979621;28;20032;-89
2021/07/16 06:00:15;;;;;;;9.32;4.75;;;13.00;99.90;;;;;;4980477;28;20033;-90
2021/07/16 06:02:41;;;;;;;6.78;4.85;;;13.00;99.90;;;;;;4979306;28;20030;-88
2021/07/16 06:05:07;;;;;;;11.93;5.22;;;13.10;99.90;;;;;;4981234;28;20507;-90
2021/07/16 06:07:33;;;;;;;7.25;4.90;;;13.20;99.90;;;;;;4993136;28;20011;-89
2021/07/16 06:09:59;;;;;;;8.00;5.28;;;13.30;99.90;;;;;;5004250;28;20061;-88
2021/07/16 06:12:24;;;;;;;8.73;5.55;;;13.30;99.90;;;;;;5003701;28;20042;-89
2021/07/16 06:14:57;;;;;;;9.25;5.93;;;13.40;99.90;;;;;;4984453;28;20034;-89
2021/07/16 06:17:23;;;;;;;13.85;6.88;;;13.50;99.90;;;;;;4982822;28;20046;-87
2021/07/16 06:19:49;;;;;;;10.48;5.93;;;13.60;99.90;;;;;;4981013;28;20077;-89
2021/07/16 06:22:15;;;;;;;9.82;5.60;;;13.70;99.90;;;;;;4979143;28;20034;-88
2021/07/16 06:24:41;;;;;;;10.20;5.95;;;13.80;99.90;;;;;;4978544;28;20054;-88
2021/07/16 06:27:06;;;;;;;8.75;5.40;;;13.80;99.90;;;;;;4966839;28;20451;-89
2021/07/16 06:29:32;;;;;;;10.38;4.93;;;13.90;99.90;;;;;;4968655;28;20037;-88
2021/07/16 06:31:58;;;;;;;13.60;5.93;;;14.10;99.90;;;;;;4977149;28;20065;-89
2021/07/16 06:34:25;;;;;;;7.82;5.20;;;14.10;99.90;;;;;;4979596;28;20468;-89
2021/07/16 06:36:51;;;;;;;15.93;6.25;;;14.20;99.90;;;;;;4975217;28;20035;-90
2021/07/16 06:39:17;;;;;;;9.30;5.18;;;14.30;99.90;;;;;;4970870;28;20034;-89
2021/07/16 06:41:42;;;;;;;8.10;4.95;;;14.40;99.90;;;;;;4967448;28;20077;-89
2021/07/16 06:44:10;;;;;;;8.77;4.78;;;14.50;99.90;;;;;;4963546;28;20093;-88
2021/07/16 06:46:36;;;;;;;12.02;5.78;;;14.70;99.90;;;;;;4960612;28;20409;-90
2021/07/16 06:49:03;;;;;;;12.25;5.28;;;14.80;99.90;;;;;;4960641;28;20030;-90
2021/07/16 06:51:30;;;;;;;8.32;4.90;;;14.90;99.90;;;;;;4966761;28;20045;-89
2021/07/16 06:53:57;;;;;;;8.40;4.97;;;14.90;99.90;;;;;;4962481;28;20678;-89
2021/07/16 06:56:23;;;;;;;15.00;5.18;;;15.10;99.90;;;;;;4970235;28;20034;-89
2021/07/16 06:58:51;;;;;;;10.23;5.22;;;15.20;99.90;;;;;;4968992;28;20114;-89
2021/07/16 07:01:18;;;;;;;7.25;4.55;;;15.30;99.90;;;;;;4967698;28;20037;-89
2021/07/16 07:03:43;;;;;;;8.25;4.95;;;15.40;99.90;;;;;;4973463;28;20033;-89
2021/07/16 07:06:09;;;;;;;9.15;5.35;;;15.60;99.90;;;;;;4966042;28;20035;-89
2021/07/16 07:08:35;;;;;;;8.63;4.75;;;15.70;99.90;;;;;;4959664;28;20074;-90
2021/07/16 07:11:01;;;;;;;9.05;4.00;;;15.80;99.90;;;;;;4959213;28;20035;-90
2021/07/16 07:13:29;;;;;;;9.38;4.97;;;15.90;99.90;;;;;;4961342;28;20034;-90
2021/07/16 07:15:55;;;;;;;6.88;3.90;;;16.00;99.90;;;;;;4958481;28;20123;-89
2021/07/16 07:18:21;;;;;;;7.60;3.40;;;16.10;99.90;;;;;;4959054;28;20030;-90
2021/07/16 07:20:47;;;;;;;9.35;4.38;;;16.30;99.90;;;;;;4969282;28;20034;-90
2021/07/16 07:23:12;;;;;;;12.05;4.43;;;16.40;99.90;;;;;;4964889;28;20026;-89
2021/07/16 07:25:40;;;;;;;11.07;4.70;;;16.50;99.90;;;;;;4965074;28;20539;-89
2021/07/16 07:28:06;;;;;;;7.90;3.88;;;16.70;99.90;;;;;;4975606;28;20027;-90
2021/07/16 07:30:32;;;;;;;7.78;3.88;;;16.80;99.90;;;;;;4964130;28;20476;-90
2021/07/16 07:32:58;;;;;;;4.88;3.10;;;17.00;99.90;;;;;;4966492;28;20026;-89
2021/07/16 07:35:23;;;;;;;9.30;3.63;;;17.10;99.90;;;;;;4958795;28;20059;-91
2021/07/16 07:37:49;;;;;;;20.73;4.22;;;17.30;99.90;;;;;;4972786;28;20517;-92
2021/07/16 07:40:17;;;;;;;7.55;3.60;;;17.40;99.90;;;;;;4964509;28;20029;-92
2021/07/16 07:42:44;;;;;;;8.57;4.10;;;17.50;99.90;;;;;;4974888;28;20507;-92
2021/07/16 07:45:11;;;;;;;10.60;3.28;;;17.70;99.90;;;;;;4966915;28;20030;-91
2021/07/16 07:47:37;;;;;;;8.55;3.30;;;17.80;99.90;;;;;;4975131;28;20061;-91
2021/07/16 07:50:08;;;;;;;10.93;3.63;;;18.00;99.90;;;;;;4976810;28;20082;-91
2021/07/16 07:52:34;;;;;;;7.82;3.40;;;18.20;99.90;;;;;;4968841;28;20026;-92
2021/07/16 07:54:59;;;;;;;8.07;3.08;;;18.30;99.90;;;;;;4958920;28;20035;-93
2021/07/16 07:57:25;;;;;;;5.47;3.05;;;18.50;99.90;;;;;;4953167;28;20484;-93
2021/07/16 07:59:50;;;;;;;4.78;2.47;;;18.70;99.90;;;;;;4971686;28;20030;-92
2021/07/16 08:02:16;;;;;;;6.25;2.95;;;18.80;99.90;;;;;;4975760;28;20042;-92
2021/07/16 08:04:42;;;;;;;8.65;4.05;;;19.00;99.90;;;;;;4967016;28;20035;-93
2021/07/16 08:07:08;;;;;;;8.00;3.10;;;19.20;99.90;;;;;;4979500;28;20041;-93
2021/07/16 08:09:34;;;;;;;9.63;3.42;;;19.40;99.90;;;;;;4972447;28;20030;-93
2021/07/16 08:12:01;;;;;;;4.88;3.03;;;19.60;99.90;;;;;;4981486;28;20577;-92
2021/07/16 08:14:26;;;;;;;12.45;3.83;;;19.90;99.90;;;;;;4994624;28;20046;-92
2021/07/16 08:16:52;;;;;;;8.43;3.35;;;20.10;99.90;;;;;;4975946;28;20027;-93
2021/07/16 08:19:18;;;;;;;6.20;3.00;;;20.30;99.90;;;;;;4959700;28;20086;-94
2021/07/16 08:21:49;;;;;;;8.27;3.17;;;20.50;99.90;;;;;;4958257;28;20026;-93
2021/07/16 08:24:15;;;;;;;5.95;3.28;;;20.70;99.90;;;;;;4974751;28;20558;-92
2021/07/16 08:26:41;;;;;;;8.57;3.13;;;20.90;99.90;;;;;;4971083;28;20043;-94
2021/07/16 08:29:08;;;;;;;8.00;2.90;;;21.10;99.90;;;;;;4961408;28;20027;-93
2021/07/16 08:31:34;;;;;;;5.18;2.63;;;21.30;99.90;;;;;;4971707;28;20023;-92
2021/07/16 08:34:00;;;;;;;4.07;2.40;;;21.50;99.90;;;;;;4958457;28;20041;-94
2021/07/16 08:36:26;;;;;;;7.68;2.92;;;21.60;99.60;;;;;;4963110;28;20083;-93
2021/07/16 08:38:51;;;;;;;4.13;2.30;;;21.80;98.80;;;;;;4962979;28;20075;-92
2021/07/16 08:41:17;;;;;;;5.38;2.30;;;21.90;98.10;;;;;;4957977;28;20100;-93
2021/07/16 08:43:43;;;;;;;5.82;2.22;;;22.00;97.30;;;;;;4966973;28;20113;-93
2021/07/16 08:46:10;;;;;;;5.95;2.53;;;22.20;96.80;;;;;;4960820;28;20530;-94
2021/07/16 08:48:37;;;;;;;4.80;2.40;;;22.30;96.30;;;;;;4969012;28;20030;-95
2021/07/16 08:51:04;;;;;;;5.60;2.65;;;22.50;95.60;;;;;;4967095;28;20027;-94
2021/07/16 08:53:32;;;;;;;3.17;1.83;;;22.60;95.10;;;;;;4966787;28;20461;-94
2021/07/16 08:55:57;;;;;;;4.43;2.28;;;22.80;94.50;;;;;;4967173;28;20062;-94
2021/07/16 08:58:23;;;;;;;6.88;2.25;;;22.90;93.80;;;;;;4964396;28;20521;-94
2021/07/16 09:00:49;;;;;;;4.43;1.90;;;23.10;93.20;;;;;;4964989;28;20539;-93
2021/07/16 09:03:16;;;;;;;7.68;2.13;;;23.20;92.80;;;;;;4975423;28;20023;-94
2021/07/16 09:05:43;;;;;;;3.53;1.70;;;23.40;92.50;;;;;;4958120;28;20047;-93
2021/07/16 09:08:21;;;;;;;5.70;2.15;;;23.40;92.00;;;;;;4962821;28;20500;-93
2021/07/16 09:10:49;;;;;;;3.20;1.63;;;23.60;91.50;;;;;;4963730;28;20040;-93
2021/07/16 09:13:15;;;;;;;3.38;1.60;;;23.70;91.20;;;;;;4964250;28;20031;-93
2021/07/16 09:15:52;;;;;;;3.15;1.38;;;23.90;90.40;;;;;;4964420;28;20043;-94
2021/07/16 09:18:29;;;;;;;4.60;1.42;;;24.00;89.40;;;;;;4957820;28;20023;-93
2021/07/16 09:21:06;;;;;;;5.38;1.65;;;24.10;88.20;;;;;;4967306;28;20117;-93
2021/07/16 09:23:39;;;;;;;4.22;1.70;;;24.30;87.10;;;;;;4959778;28;20476;-92
2021/07/16 09:26:24;;;;;;;6.25;1.52;;;24.40;86.20;;;;;;4968784;28;20038;-93
2021/07/16 09:28:50;;;;;;;2.03;1.50;;;24.50;85.60;;;;;;4967166;28;20041;-92
2021/07/16 09:31:27;;;;;;;2.67;1.80;;;24.70;85.00;;;;;;4960674;28;20058;-92
2021/07/16 09:33:57;;;;;;;2.40;1.58;;;24.80;84.40;;;;;;4965326;28;20050;-94
2021/07/16 09:36:31;;;;;;;4.28;1.50;;;25.00;83.30;;;;;;4957736;28;20092;-94
2021/07/16 09:39:10;;;;;;;4.13;1.50;;;25.10;81.80;;;;;;4971176;28;20515;-93
2021/07/16 09:41:57;;;;;;;6.07;1.95;;;25.20;80.60;;;;;;4967671;28;20373;-91
2021/07/16 09:44:30;;;;;;;3.35;1.40;;;25.30;80.20;;;;;;4967996;28;20071;-90
2021/07/16 09:47:13;;;;;;;2.60;1.63;;;25.40;79.30;;;;;;4971144;28;20089;-90
2021/07/16 09:49:40;;;;;;;2.60;1.33;;;25.50;78.10;;;;;;4971329;28;20444;-93
2021/07/16 09:52:08;;;;;;;4.15;1.75;;;25.60;77.10;;;;;;4959401;28;20027;-93
2021/07/16 09:54:34;;;;;;;4.75;1.48;;;25.70;76.30;;;;;;4969543;28;20026;-92
2021/07/16 09:57:00;;;;;;;5.13;1.50;;;25.90;75.90;;;;;;4967615;28;20065;-91
2021/07/16 09:59:29;;;;;;;3.80;1.27;;;26.00;75.20;;;;;;4972958;28;20030;-92
2021/07/16 10:01:55;;;;;;;2.08;1.20;;;26.10;74.50;;;;;;4974372;28;20034;-91
2021/07/16 10:04:23;;;;;;;3.25;1.40;;;26.30;74.30;;;;;;4973648;28;20030;-91
2021/07/16 10:06:53;;;;;;;3.50;1.60;;;26.40;74.30;;;;;;4971794;28;20035;-92
2021/07/16 10:09:23;;;;;;;4.47;1.23;;;26.60;73.90;;;;;;4973464;28;20062;-89
2021/07/16 10:11:56;;;;;;;5.43;1.55;;;26.80;73.50;;;;;;4973066;28;20042;-92
2021/07/16 10:14:23;;;;;;;4.72;1.52;;;26.90;72.50;;;;;;4986251;28;20026;-90
2021/07/16 10:16:52;;;;;;;6.72;1.52;;;27.00;71.60;;;;;;4982928;28;20566;-90
2021/07/16 10:19:18;;;;;;;2.63;1.73;;;27.10;71.20;;;;;;4972076;28;20019;-90
2021/07/16 10:21:45;;;;;;;3.80;1.35;;;27.30;71.10;;;;;;4951458;28;20055;-90
2021/07/16 10:24:17;;;;;;;4.55;1.45;;;27.40;70.80;;;;;;4965884;28;20011;-89
2021/07/16 10:26:44;;;;;;;3.55;1.40;;;27.60;70.40;;;;;;4963030;28;20046;-90
2021/07/16 10:29:31;;;;;;;4.15;2.08;;;27.50;69.90;;;;;;4961867;28;20031;-90
2021/07/16 10:31:57;;;;;;;5.00;1.70;;;27.50;69.50;;;;;;4961266;28;20027;-91
2021/07/16 10:34:29;;;;;;;2.67;1.63;;;27.60;69.40;;;;;;4971988;28;20034;-91
2021/07/16 10:37:04;;;;;;;3.58;1.83;;;27.60;69.20;;;;;;4961788;28;20023;-91
2021/07/16 10:39:46;;;;;;;3.67;1.92;;;27.60;69.00;;;;;;4965231;28;20031;-92
2021/07/16 10:42:27;;;;;;;4.40;1.90;;;27.40;68.50;;;;;;4965189;28;20539;-90
2021/07/16 10:44:58;;;;;;;2.83;1.50;;;27.40;68.80;;;;;;4960383;28;20031;-92
2021/07/16 10:47:43;;;;;;;4.05;1.48;;;27.30;68.20;;;;;;4976825;28;20437;-91
2021/07/16 10:50:13;;;;;;;2.70;1.90;;;27.30;68.00;;;;;;4967527;28;20046;-90
2021/07/16 10:52:50;;;;;;;;;;;27.20;68.00;;;;;;4962292;28;20484;-90
2021/07/16 10:55:39;;;;;;;4.65;1.60;;;27.10;68.00;;;;;;4979446;28;20352;-92
2021/07/16 10:58:26;;;;;;;2.85;1.65;;;26.90;67.40;;;;;;4895856;29;20069;-91
2021/07/16 11:00:52;;;;;;;1.20;1.10;;;26.90;67.90;;;;;;4899291;29;20032;-91
2021/07/16 11:03:20;;;;;;;3.47;1.30;;;26.90;67.80;;;;;;4916461;29;20032;-91
2021/07/16 11:05:46;;;;;;;3.55;1.70;;;26.90;67.30;;;;;;4905912;29;20043;-91
2021/07/16 11:08:43;;;;;;;1.88;1.40;;;26.90;67.20;;;;;;4897310;29;20017;-91
2021/07/16 11:11:18;;;;;;;2.47;1.60;;;26.70;67.40;;;;;;4856207;29;20029;-90
2021/07/16 11:13:57;;;;;;;4.25;1.92;;;26.60;67.60;;;;;;4895372;29;20056;-90
2021/07/16 11:16:27;;;;;;;2.38;1.70;;;26.60;68.10;;;;;;4882737;29;20123;-92
2021/07/16 11:18:58;;;;;;;3.70;1.80;;;26.80;68.50;;;;;;4898141;29;20028;-91
2021/07/16 11:21:39;;;;;;;;;;;27.00;68.40;;;;;;4883403;29;20044;-91
2021/07/16 11:24:19;;;;;;;3.78;2.00;;;27.40;67.90;;;;;;4889964;29;19915;-90
2021/07/16 11:27:03;;;;;;;4.53;1.73;;;27.60;66.90;;;;;;4901737;29;20103;-91
2021/07/16 11:29:28;;;;;;;2.33;1.67;;;27.80;66.20;;;;;;4902457;29;20040;-91
2021/07/16 11:32:02;;;;;;;2.90;1.48;;;28.00;65.50;;;;;;4917459;29;20039;-91
2021/07/16 11:34:28;;;;;;;1.98;1.80;;;28.00;65.20;;;;;;4915936;28;20042;-91
2021/07/16 11:36:54;;;;;;;4.25;2.08;;;28.20;65.20;;;;;;4960170;28;20023;-91
2021/07/16 11:39:39;;;;;;;2.03;1.50;;;28.40;65.20;;;;;;4959631;28;20042;-91
2021/07/16 11:42:07;;;;;;;2.70;1.63;;;28.40;65.00;;;;;;4960230;28;20054;-91
2021/07/16 11:44:33;;;;;;;2.20;1.60;;;28.50;65.00;;;;;;4977706;28;20035;-93
2021/07/16 11:47:21;;;;;;;3.25;2.03;;;28.60;63.90;;;;;;4961918;28;20039;-92
2021/07/16 11:49:49;;;;;;;2.78;1.50;;;28.80;63.50;;;;;;4961899;28;20018;-91
2021/07/16 11:52:21;;;;;;;2.13;1.50;;;28.90;63.50;;;;;;4959895;28;20027;-91
2021/07/16 11:54:49;;;;;;;2.95;1.63;;;29.20;62.90;;;;;;4983818;28;20034;-92
2021/07/16 11:57:16;;;;;;;3.55;1.55;;;29.50;62.30;;;;;;4996243;28;20030;-91
2021/07/16 11:59:49;;;;;;;3.78;1.85;;;29.70;61.00;;;;;;4962769;28;20626;-91
2021/07/16 12:02:21;;;;;;;2.75;1.95;;;29.90;60.60;;;;;;4972440;28;20041;-92
2021/07/16 12:04:48;;;;;;;2.17;1.48;;;29.80;60.30;;;;;;4969214;28;20022;-92
2021/07/16 12:07:15;;;;;;;1.55;1.45;;;29.80;60.00;;;;;;4971975;28;20026;-92
2021/07/16 12:09:45;;;;;;;2.33;1.50;;;29.90;60.10;;;;;;4971390;28;20375;-91
2021/07/16 12:12:17;;;;;;;1.48;1.35;;;30.10;60.20;;;;;;4971363;28;20194;-90
2021/07/16 12:14:51;;;;;;;2.03;1.60;;;30.20;59.80;;;;;;4966239;28;20380;-92
2021/07/16 12:17:21;;;;;;;2.13;1.55;;;30.10;59.50;;;;;;4974152;28;20125;-91
2021/07/16 12:19:47;;;;;;;;;;;30.10;59.70;;;;;;4970463;28;20033;-91
2021/07/16 12:22:17;;;;;;;2.42;1.50;;;30.20;59.90;;;;;;4967457;28;19906;-91
2021/07/16 12:24:43;;;;;;;;;;;30.30;60.20;;;;;;4988452;28;20026;-91
2021/07/16 12:27:13;;;;;;;1.60;1.50;;;30.50;60.00;;;;;;4987371;28;19993;-91
2021/07/16 12:29:41;;;;;;;2.65;1.58;;;30.60;59.60;;;;;;4968080;28;20043;-91
2021/07/16 12:32:07;;;;;;;2.63;1.40;;;30.60;59.40;;;;;;4968580;28;20030;-91
2021/07/16 12:34:34;;;;;;;3.90;1.65;;;30.80;58.50;;;;;;4961352;28;20125;-91
2021/07/16 12:37:13;;;;;;;5.15;1.55;;;30.80;58.00;;;;;;4960184;28;20033;-91
2021/07/16 12:39:42;;;;;;;3.05;1.65;;;31.00;57.70;;;;;;4960157;28;20041;-91
2021/07/16 12:42:14;;;;;;;2.55;1.65;;;31.00;57.80;;;;;;4960315;28;20027;-92
2021/07/16 12:44:59;;;;;;;2.85;1.30;;;31.10;57.50;;;;;;4961340;28;20037;-92
2021/07/16 12:47:25;;;;;;;2.67;1.58;;;31.10;57.40;;;;;;4961035;28;20193;-93
2021/07/16 12:50:07;;;;;;;1.98;1.50;;;30.80;57.20;;;;;;4959285;28;20062;-92
2021/07/16 12:52:34;;;;;;;2.13;1.45;;;30.50;57.50;;;;;;4958380;28;20448;-91